PWSweather.com
Personal Weather Stations
Station Observations
GEELONGWX1
Bell Post Hill, GeelongAU

Bell Post HillGeelongAU

Lat: -38.101, Lon: 144.326

Elevation: 204

Station Type: Davis Vantage Pro2

http://www.geelongweather.com

High Low Average
Temperature 74.0°F23.3°F 56.0°F13.3°F 62.8°F17.1°F
Dew Point 60.6°F15.9°F 46.0°F7.8°F 54.0°F12.2°F
Winds 16.1 mph SSW25.9 mph SSW Calm Calm 6.3 mph 10.1 mph
Wind Gusts 23.0 mph37.0 mph -- 11.1 mph17.9 mph
Humidity 78% 59% 73%
Pressure 29.98 in1015.20 in 29.88 in1011.90 in -
Precipitation 0.00 in0.00 in - -
Hour Temp Dew Point Humidity Winds Wind Gusts Pressure Precip Precip Rate Daily Precip Total
12:00 AM 56.0°F13.3°C 46.0°F7.8°C 69% 16.1 mph SSW25.9 kmh SSW 21.9 mph35.2 kmh 29.98 in1015.2 mb 0.00 in0.0 mm 0.00 in/hr0.0 mm/hr 0.00 in0.0 mm
12:10 AM 56.1°F13.4°C 46.4°F8.0°C 70% 12.7 mph SW20.4 kmh SW 17.3 mph27.8 kmh 29.98 in1015.2 mb 0.00 in0.0 mm 0.00 in/hr0.0 mm/hr 0.00 in0.0 mm
12:20 AM 56.1°F13.4°C 46.5°F8.1°C 70% 9.2 mph SW14.8 kmh SW 18.4 mph29.6 kmh 29.98 in1015.2 mb 0.00 in0.0 mm 0.00 in/hr0.0 mm/hr 0.00 in0.0 mm
12:30 AM 56.1°F13.4°C 46.5°F8.1°C 70% 11.5 mph SW18.5 kmh SW 19.6 mph31.5 kmh 29.98 in1015.2 mb 0.00 in0.0 mm 0.00 in/hr0.0 mm/hr 0.00 in0.0 mm
12:40 AM 56.1°F13.4°C 46.8°F8.2°C 71% 8.1 mph SSW13.0 kmh SSW 11.5 mph18.5 kmh 29.97 in1014.9 mb 0.00 in0.0 mm 0.00 in/hr0.0 mm/hr 0.00 in0.0 mm
12:50 AM 56.1°F13.4°C 46.8°F8.2°C 71% 10.4 mph WSW16.7 kmh WSW 13.8 mph22.2 kmh 29.97 in1014.9 mb 0.00 in0.0 mm 0.00 in/hr0.0 mm/hr 0.00 in0.0 mm
01:00 AM 56.1°F13.4°C 47.2°F8.4°C 72% 10.4 mph SSW16.7 kmh SSW 18.4 mph29.6 kmh 29.96 in1014.6 mb 0.00 in0.0 mm 0.00 in/hr0.0 mm/hr 0.00 in0.0 mm
01:10 AM 56.2°F13.4°C 47.3°F8.5°C 72% 9.2 mph SW14.8 kmh SW 18.4 mph29.6 kmh 29.97 in1014.9 mb 0.00 in0.0 mm 0.00 in/hr0.0 mm/hr 0.00 in0.0 mm
01:20 AM 56.3°F13.5°C 47.4°F8.6°C 72% 8.1 mph SW13.0 kmh SW 15.0 mph24.1 kmh 29.96 in1014.6 mb 0.00 in0.0 mm 0.00 in/hr0.0 mm/hr 0.00 in0.0 mm
01:30 AM 56.5°F13.6°C 47.6°F8.7°C 72% 11.5 mph SW18.5 kmh SW 19.6 mph31.5 kmh 29.96 in1014.6 mb 0.00 in0.0 mm 0.00 in/hr0.0 mm/hr 0.00 in0.0 mm
01:40 AM 56.6°F13.7°C 48.0°F8.9°C 73% 10.4 mph SSW16.7 kmh SSW 17.3 mph27.8 kmh 29.96 in1014.6 mb 0.00 in0.0 mm 0.00 in/hr0.0 mm/hr 0.00 in0.0 mm
01:50 AM 56.7°F13.7°C 48.1°F8.9°C 73% 11.5 mph SSW18.5 kmh SSW 19.6 mph31.5 kmh 29.95 in1014.2 mb 0.00 in0.0 mm 0.00 in/hr0.0 mm/hr 0.00 in0.0 mm
02:00 AM 56.8°F13.8°C 48.2°F9.0°C 73% 11.5 mph SW18.5 kmh SW 15.0 mph24.1 kmh 29.95 in1014.2 mb 0.00 in0.0 mm 0.00 in/hr0.0 mm/hr 0.00 in0.0 mm
02:10 AM 56.7°F13.7°C 48.2°F9.0°C 73% 9.2 mph SW14.8 kmh SW 15.0 mph24.1 kmh 29.95 in1014.2 mb 0.00 in0.0 mm 0.00 in/hr0.0 mm/hr 0.00 in0.0 mm
02:20 AM 56.7°F13.7°C 48.1°F8.9°C 73% 9.2 mph SW14.8 kmh SW 21.9 mph35.2 kmh 29.95 in1014.2 mb 0.00 in0.0 mm 0.00 in/hr0.0 mm/hr 0.00 in0.0 mm
02:30 AM 56.8°F13.8°C 48.2°F9.0°C 73% 12.7 mph SW20.4 kmh SW 21.9 mph35.2 kmh 29.93 in1013.5 mb 0.00 in0.0 mm 0.00 in/hr0.0 mm/hr 0.00 in0.0 mm
02:40 AM 56.8°F13.8°C 48.2°F9.0°C 73% 8.1 mph SW13.0 kmh SW 17.3 mph27.8 kmh 29.93 in1013.5 mb 0.00 in0.0 mm 0.00 in/hr0.0 mm/hr 0.00 in0.0 mm
02:50 AM 56.7°F13.7°C 48.5°F9.2°C 74% 6.9 mph SSW11.1 kmh SSW 17.3 mph27.8 kmh 29.92 in1013.2 mb 0.00 in0.0 mm 0.00 in/hr0.0 mm/hr 0.00 in0.0 mm
03:00 AM 56.6°F13.7°C 48.4°F9.1°C 74% 9.2 mph SW14.8 kmh SW 12.7 mph20.4 kmh 29.92 in1013.2 mb 0.00 in0.0 mm 0.00 in/hr0.0 mm/hr 0.00 in0.0 mm
03:10 AM 56.4°F13.6°C 48.2°F9.0°C 74% 6.9 mph SW11.1 kmh SW 12.7 mph20.4 kmh 29.92 in1013.2 mb 0.00 in0.0 mm 0.00 in/hr0.0 mm/hr 0.00 in0.0 mm
03:20 AM 56.2°F13.4°C 48.0°F8.9°C 74% 11.5 mph SW18.5 kmh SW 18.4 mph29.6 kmh 29.92 in1013.2 mb 0.00 in0.0 mm 0.00 in/hr0.0 mm/hr 0.00 in0.0 mm
03:30 AM 56.2°F13.4°C 48.0°F8.9°C 74% 6.9 mph SSW11.1 kmh SSW 11.5 mph18.5 kmh 29.91 in1012.9 mb 0.00 in0.0 mm 0.00 in/hr0.0 mm/hr 0.00 in0.0 mm
03:40 AM 56.4°F13.6°C 48.2°F9.0°C 74% 8.1 mph SW13.0 kmh SW 17.3 mph27.8 kmh 29.91 in1012.9 mb 0.00 in0.0 mm 0.00 in/hr0.0 mm/hr 0.00 in0.0 mm
03:50 AM 56.5°F13.6°C 48.3°F9.1°C 74% 10.4 mph SW16.7 kmh SW 17.3 mph27.8 kmh 29.91 in1012.9 mb 0.00 in0.0 mm 0.00 in/hr0.0 mm/hr 0.00 in0.0 mm
04:00 AM 56.6°F13.7°C 48.8°F9.3°C 75% 10.4 mph SSW16.7 kmh SSW 15.0 mph24.1 kmh 29.91 in1012.9 mb 0.00 in0.0 mm 0.00 in/hr0.0 mm/hr 0.00 in0.0 mm
04:10 AM 56.6°F13.7°C 48.8°F9.3°C 75% 9.2 mph SW14.8 kmh SW 12.7 mph20.4 kmh 29.91 in1012.9 mb 0.00 in0.0 mm 0.00 in/hr0.0 mm/hr 0.00 in0.0 mm
04:20 AM 56.7°F13.7°C 48.9°F9.4°C 75% 11.5 mph SW18.5 kmh SW 19.6 mph31.5 kmh 29.91 in1012.9 mb 0.00 in0.0 mm 0.00 in/hr0.0 mm/hr 0.00 in0.0 mm
04:30 AM 56.8°F13.8°C 49.0°F9.4°C 75% 8.1 mph SW13.0 kmh SW 15.0 mph24.1 kmh 29.90 in1012.5 mb 0.00 in0.0 mm 0.00 in/hr0.0 mm/hr 0.00 in0.0 mm
04:40 AM 56.8°F13.8°C 49.0°F9.4°C 75% 10.4 mph SW16.7 kmh SW 16.1 mph25.9 kmh 29.89 in1012.2 mb 0.00 in0.0 mm 0.00 in/hr0.0 mm/hr 0.00 in0.0 mm
04:50 AM 57.0°F13.9°C 49.1°F9.5°C 75% 9.2 mph SW14.8 kmh SW 10.4 mph16.7 kmh 29.89 in1012.2 mb 0.00 in0.0 mm 0.00 in/hr0.0 mm/hr 0.00 in0.0 mm
05:00 AM 57.1°F13.9°C 49.2°F9.6°C 75% 11.5 mph SW18.5 kmh SW 19.6 mph31.5 kmh 29.89 in1012.2 mb 0.00 in0.0 mm 0.00 in/hr0.0 mm/hr 0.00 in0.0 mm
05:10 AM 57.3°F14.1°C 49.4°F9.7°C 75% 8.1 mph SSW13.0 kmh SSW 13.8 mph22.2 kmh 29.88 in1011.9 mb 0.00 in0.0 mm 0.00 in/hr0.0 mm/hr 0.00 in0.0 mm
05:20 AM 57.2°F14.0°C 49.3°F9.6°C 75% 10.4 mph SW16.7 kmh SW 18.4 mph29.6 kmh 29.88 in1011.9 mb 0.00 in0.0 mm 0.00 in/hr0.0 mm/hr 0.00 in0.0 mm
05:30 AM 57.2°F14.0°C 49.7°F9.8°C 76% 15.0 mph SSW24.1 kmh SSW 21.9 mph35.2 kmh 29.88 in1011.9 mb 0.00 in0.0 mm 0.00 in/hr0.0 mm/hr 0.00 in0.0 mm
05:40 AM 57.2°F14.0°C 49.7°F9.8°C 76% 11.5 mph SW18.5 kmh SW 20.7 mph33.3 kmh 29.88 in1011.9 mb 0.00 in0.0 mm 0.00 in/hr0.0 mm/hr 0.00 in0.0 mm
05:50 AM 57.2°F14.0°C 49.7°F9.8°C 76% 10.4 mph SSW16.7 kmh SSW 13.8 mph22.2 kmh 29.89 in1012.2 mb 0.00 in0.0 mm 0.00 in/hr0.0 mm/hr 0.00 in0.0 mm
06:00 AM 57.3°F14.1°C 50.1°F10.1°C 77% 13.8 mph SSW22.2 kmh SSW 19.6 mph31.5 kmh 29.89 in1012.2 mb 0.00 in0.0 mm 0.00 in/hr0.0 mm/hr 0.00 in0.0 mm
06:20 AM 57.5°F14.2°C 50.3°F10.2°C 77% 10.4 mph SSW16.7 kmh SSW 13.8 mph22.2 kmh 29.90 in1012.5 mb 0.00 in0.0 mm 0.00 in/hr0.0 mm/hr 0.00 in0.0 mm
06:30 AM 57.5°F14.2°C 50.7°F10.4°C 78% 9.2 mph SW14.8 kmh SW 12.7 mph20.4 kmh 29.90 in1012.5 mb 0.00 in0.0 mm 0.00 in/hr0.0 mm/hr 0.00 in0.0 mm
06:40 AM 57.6°F14.2°C 50.8°F10.4°C 78% 12.7 mph S20.4 kmh S 19.6 mph31.5 kmh 29.90 in1012.5 mb 0.00 in0.0 mm 0.00 in/hr0.0 mm/hr 0.00 in0.0 mm
06:50 AM 57.7°F14.3°C 50.9°F10.5°C 78% 11.5 mph SSW18.5 kmh SSW 19.6 mph31.5 kmh 29.91 in1012.9 mb 0.00 in0.0 mm 0.00 in/hr0.0 mm/hr 0.00 in0.0 mm
07:00 AM 57.6°F14.2°C 50.8°F10.4°C 78% 3.5 mph SSW5.6 kmh SSW 19.6 mph31.5 kmh 29.91 in1012.9 mb 0.00 in0.0 mm 0.00 in/hr0.0 mm/hr 0.00 in0.0 mm
07:10 AM 57.7°F14.3°C 50.9°F10.5°C 78% 11.5 mph SW18.5 kmh SW 20.7 mph33.3 kmh 29.91 in1012.9 mb 0.00 in0.0 mm 0.00 in/hr0.0 mm/hr 0.00 in0.0 mm
07:20 AM 57.9°F14.4°C 51.1°F10.6°C 78% 6.9 mph SSW11.1 kmh SSW 17.3 mph27.8 kmh 29.91 in1012.9 mb 0.00 in0.0 mm 0.00 in/hr0.0 mm/hr 0.00 in0.0 mm
07:30 AM 58.4°F14.7°C 51.6°F10.9°C 78% 11.5 mph SSW18.5 kmh SSW 21.9 mph35.2 kmh 29.91 in1012.9 mb 0.00 in0.0 mm 0.00 in/hr0.0 mm/hr 0.00 in0.0 mm
07:40 AM 58.9°F14.9°C 52.1°F11.2°C 78% 12.7 mph SSW20.4 kmh SSW 16.1 mph25.9 kmh 29.92 in1013.2 mb 0.00 in0.0 mm 0.00 in/hr0.0 mm/hr 0.00 in0.0 mm
07:50 AM 59.1°F15.1°C 51.9°F11.1°C 77% 8.1 mph SSW13.0 kmh SSW 11.5 mph18.5 kmh 29.91 in1012.9 mb 0.00 in0.0 mm 0.00 in/hr0.0 mm/hr 0.00 in0.0 mm
08:00 AM 59.9°F15.5°C 52.6°F11.4°C 77% 4.6 mph SW7.4 kmh SW 11.5 mph18.5 kmh 29.92 in1013.2 mb 0.00 in0.0 mm 0.00 in/hr0.0 mm/hr 0.00 in0.0 mm
08:10 AM 60.4°F15.8°C 53.2°F11.8°C 77% 11.5 mph S18.5 kmh S 18.4 mph29.6 kmh 29.92 in1013.2 mb 0.00 in0.0 mm 0.00 in/hr0.0 mm/hr 0.00 in0.0 mm
08:20 AM 60.6°F15.9°C 53.3°F11.8°C 77% 10.4 mph SSW16.7 kmh SSW 16.1 mph25.9 kmh 29.93 in1013.5 mb 0.00 in0.0 mm 0.00 in/hr0.0 mm/hr 0.00 in0.0 mm
08:30 AM 60.8°F16.0°C 53.5°F11.9°C 77% 10.4 mph SSW16.7 kmh SSW 19.6 mph31.5 kmh 29.93 in1013.5 mb 0.00 in0.0 mm 0.00 in/hr0.0 mm/hr 0.00 in0.0 mm
08:40 AM 60.4°F15.8°C 53.2°F11.8°C 77% 8.1 mph SSW13.0 kmh SSW 11.5 mph18.5 kmh 29.93 in1013.5 mb 0.00 in0.0 mm 0.00 in/hr0.0 mm/hr 0.00 in0.0 mm
08:50 AM 60.4°F15.8°C 53.2°F11.8°C 77% 11.5 mph SSW18.5 kmh SSW 19.6 mph31.5 kmh 29.93 in1013.5 mb 0.00 in0.0 mm 0.00 in/hr0.0 mm/hr 0.00 in0.0 mm
09:00 AM 60.7°F15.9°C 53.4°F11.9°C 77% 3.5 mph SSW5.6 kmh SSW 10.4 mph16.7 kmh 29.93 in1013.5 mb 0.00 in0.0 mm 0.00 in/hr0.0 mm/hr 0.00 in0.0 mm
09:10 AM 61.0°F16.1°C 53.7°F12.1°C 77% 11.5 mph SSW18.5 kmh SSW 17.3 mph27.8 kmh 29.93 in1013.5 mb 0.00 in0.0 mm 0.00 in/hr0.0 mm/hr 0.00 in0.0 mm
09:20 AM 62.2°F16.8°C 54.9°F12.7°C 77% 6.9 mph SSW11.1 kmh SSW 10.4 mph16.7 kmh 29.94 in1013.9 mb 0.00 in0.0 mm 0.00 in/hr0.0 mm/hr 0.00 in0.0 mm
09:30 AM 63.5°F17.5°C 56.2°F13.4°C 77% 6.9 mph S11.1 kmh S 18.4 mph29.6 kmh 29.94 in1013.9 mb 0.00 in0.0 mm 0.00 in/hr0.0 mm/hr 0.00 in0.0 mm
09:40 AM 63.4°F17.4°C 56.4°F13.6°C 78% 5.8 mph S9.3 kmh S 11.5 mph18.5 kmh 29.94 in1013.9 mb 0.00 in0.0 mm 0.00 in/hr0.0 mm/hr 0.00 in0.0 mm
09:50 AM 63.3°F17.4°C 56.3°F13.5°C 78% 12.7 mph S20.4 kmh S 18.4 mph29.6 kmh 29.94 in1013.9 mb 0.00 in0.0 mm 0.00 in/hr0.0 mm/hr 0.00 in0.0 mm
10:00 AM 62.6°F17.0°C 55.3°F12.9°C 77% 4.6 mph SW7.4 kmh SW 11.5 mph18.5 kmh 29.94 in1013.9 mb 0.00 in0.0 mm 0.00 in/hr0.0 mm/hr 0.00 in0.0 mm
10:10 AM 63.5°F17.5°C 56.1°F13.4°C 77% 6.9 mph S11.1 kmh S 10.4 mph16.7 kmh 29.94 in1013.9 mb 0.00 in0.0 mm 0.00 in/hr0.0 mm/hr 0.00 in0.0 mm
10:20 AM 65.0°F18.3°C 57.6°F14.2°C 77% 4.6 mph SSW7.4 kmh SSW 6.9 mph11.1 kmh 29.94 in1013.9 mb 0.00 in0.0 mm 0.00 in/hr0.0 mm/hr 0.00 in0.0 mm
10:30 AM 65.1°F18.4°C 57.7°F14.3°C 77% 13.8 mph SSW22.2 kmh SSW 15.0 mph24.1 kmh 29.94 in1013.9 mb 0.00 in0.0 mm 0.00 in/hr0.0 mm/hr 0.00 in0.0 mm
10:40 AM 66.0°F18.9°C 58.6°F14.8°C 77% 4.6 mph SSW7.4 kmh SSW 11.5 mph18.5 kmh 29.94 in1013.9 mb 0.00 in0.0 mm 0.00 in/hr0.0 mm/hr 0.00 in0.0 mm
10:50 AM 66.9°F19.4°C 59.0°F15.0°C 76% 9.2 mph SSW14.8 kmh SSW 11.5 mph18.5 kmh 29.94 in1013.9 mb 0.00 in0.0 mm 0.00 in/hr0.0 mm/hr 0.00 in0.0 mm
11:00 AM 68.1°F20.1°C 59.5°F15.3°C 74% 13.8 mph S22.2 kmh S 18.4 mph29.6 kmh 29.94 in1013.9 mb 0.00 in0.0 mm 0.00 in/hr0.0 mm/hr 0.00 in0.0 mm
11:10 AM 66.6°F19.2°C 58.4°F14.7°C 75% 10.4 mph SW16.7 kmh SW 18.4 mph29.6 kmh 29.94 in1013.9 mb 0.00 in0.0 mm 0.00 in/hr0.0 mm/hr 0.00 in0.0 mm
11:20 AM 68.4°F20.2°C 60.1°F15.6°C 75% 12.7 mph S20.4 kmh S 21.9 mph35.2 kmh 29.94 in1013.9 mb 0.00 in0.0 mm 0.00 in/hr0.0 mm/hr 0.00 in0.0 mm
11:30 AM 67.9°F19.9°C 59.7°F15.4°C 75% 9.2 mph S14.8 kmh S 10.4 mph16.7 kmh 29.94 in1013.9 mb 0.00 in0.0 mm 0.00 in/hr0.0 mm/hr 0.00 in0.0 mm
11:40 AM 69.3°F20.7°C 59.9°F15.5°C 72% 10.4 mph S16.7 kmh S 15.0 mph24.1 kmh 29.93 in1013.5 mb 0.00 in0.0 mm 0.00 in/hr0.0 mm/hr 0.00 in0.0 mm
11:50 AM 70.8°F21.6°C 60.5°F15.8°C 70% 12.7 mph S20.4 kmh S 13.8 mph22.2 kmh 29.93 in1013.5 mb 0.00 in0.0 mm 0.00 in/hr0.0 mm/hr 0.00 in0.0 mm
12:00 PM 70.5°F21.4°C 59.9°F15.5°C 69% 12.7 mph S20.4 kmh S 19.6 mph31.5 kmh 29.93 in1013.5 mb 0.00 in0.0 mm 0.00 in/hr0.0 mm/hr 0.00 in0.0 mm
12:10 PM 71.1°F21.7°C 60.4°F15.8°C 69% 11.5 mph S18.5 kmh S 15.0 mph24.1 kmh 29.93 in1013.5 mb 0.00 in0.0 mm 0.00 in/hr0.0 mm/hr 0.00 in0.0 mm
12:20 PM 72.2°F22.3°C 60.6°F15.9°C 67% 11.5 mph S18.5 kmh S 17.3 mph27.8 kmh 29.93 in1013.5 mb 0.00 in0.0 mm 0.00 in/hr0.0 mm/hr 0.00 in0.0 mm
12:30 PM 72.3°F22.4°C 60.3°F15.7°C 66% 8.1 mph SSE13.0 kmh SSE 19.6 mph31.5 kmh 29.93 in1013.5 mb 0.00 in0.0 mm 0.00 in/hr0.0 mm/hr 0.00 in0.0 mm
12:40 PM 73.1°F22.8°C 60.2°F15.7°C 64% 12.7 mph SSW20.4 kmh SSW 20.7 mph33.3 kmh 29.93 in1013.5 mb 0.00 in0.0 mm 0.00 in/hr0.0 mm/hr 0.00 in0.0 mm
12:50 PM 72.7°F22.6°C 59.8°F15.4°C 64% 5.8 mph S9.3 kmh S 11.5 mph18.5 kmh 29.93 in1013.5 mb 0.00 in0.0 mm 0.00 in/hr0.0 mm/hr 0.00 in0.0 mm
01:00 PM 71.7°F22.1°C 59.8°F15.4°C 66% 3.5 mph S5.6 kmh S -- 29.93 in1013.5 mb 0.00 in0.0 mm 0.00 in/hr0.0 mm/hr 0.00 in0.0 mm
01:10 PM 71.8°F22.1°C 59.0°F15.0°C 64% 1.2 mph SSE1.9 kmh SSE 10.4 mph16.7 kmh 29.93 in1013.5 mb 0.00 in0.0 mm 0.00 in/hr0.0 mm/hr 0.00 in0.0 mm
01:20 PM 70.4°F21.3°C 59.4°F15.2°C 68% 5.8 mph S9.3 kmh S 18.4 mph29.6 kmh 29.92 in1013.2 mb 0.00 in0.0 mm 0.00 in/hr0.0 mm/hr 0.00 in0.0 mm
01:30 PM 74.0°F23.3°C 58.8°F14.9°C 59% 10.4 mph SW16.7 kmh SW 19.6 mph31.5 kmh 29.92 in1013.2 mb 0.00 in0.0 mm 0.00 in/hr0.0 mm/hr 0.00 in0.0 mm
01:40 PM 73.6°F23.1°C 58.4°F14.7°C 59% 10.4 mph S16.7 kmh S 23.0 mph37.0 kmh 29.92 in1013.2 mb 0.00 in0.0 mm 0.00 in/hr0.0 mm/hr 0.00 in0.0 mm
01:50 PM 70.5°F21.4°C 58.2°F14.6°C 65% 3.5 mph SE5.6 kmh SE 10.4 mph16.7 kmh 29.93 in1013.5 mb 0.00 in0.0 mm 0.00 in/hr0.0 mm/hr 0.00 in0.0 mm
02:00 PM 72.8°F22.7°C 60.4°F15.8°C 65% 5.8 mph S9.3 kmh S 11.5 mph18.5 kmh 29.92 in1013.2 mb 0.00 in0.0 mm 0.00 in/hr0.0 mm/hr 0.00 in0.0 mm
02:10 PM 72.1°F22.3°C 57.9°F14.4°C 61% 5.8 mph SSE9.3 kmh SSE 9.2 mph14.8 kmh 29.92 in1013.2 mb 0.00 in0.0 mm 0.00 in/hr0.0 mm/hr 0.00 in0.0 mm
02:20 PM 72.7°F22.6°C 58.5°F14.7°C 61% 8.1 mph SSE13.0 kmh SSE 12.7 mph20.4 kmh 29.92 in1013.2 mb 0.00 in0.0 mm 0.00 in/hr0.0 mm/hr 0.00 in0.0 mm
02:30 PM 71.5°F21.9°C 58.7°F14.8°C 64% 3.5 mph S5.6 kmh S 16.1 mph25.9 kmh 29.92 in1013.2 mb 0.00 in0.0 mm 0.00 in/hr0.0 mm/hr 0.00 in0.0 mm
02:40 PM 72.9°F22.7°C 58.2°F14.6°C 60% 10.4 mph ESE16.7 kmh ESE 11.5 mph18.5 kmh 29.92 in1013.2 mb 0.00 in0.0 mm 0.00 in/hr0.0 mm/hr 0.00 in0.0 mm
02:50 PM 70.0°F21.1°C 59.0°F15.0°C 68% Calm Calm -- 29.92 in1013.2 mb 0.00 in0.0 mm 0.00 in/hr0.0 mm/hr 0.00 in0.0 mm
03:00 PM 69.7°F20.9°C 58.3°F14.6°C 67% Calm Calm -- 29.92 in1013.2 mb 0.00 in0.0 mm 0.00 in/hr0.0 mm/hr 0.00 in0.0 mm
03:10 PM 71.4°F21.9°C 58.6°F14.8°C 64% 4.6 mph S7.4 kmh S 12.7 mph20.4 kmh 29.92 in1013.2 mb 0.00 in0.0 mm 0.00 in/hr0.0 mm/hr 0.00 in0.0 mm
03:20 PM 69.2°F20.7°C 57.8°F14.3°C 67% 1.2 mph S1.9 kmh S 8.1 mph13.0 kmh 29.92 in1013.2 mb 0.00 in0.0 mm 0.00 in/hr0.0 mm/hr 0.00 in0.0 mm
03:30 PM 70.9°F21.6°C 58.1°F14.5°C 64% 8.1 mph S13.0 kmh S 13.8 mph22.2 kmh 29.91 in1012.9 mb 0.00 in0.0 mm 0.00 in/hr0.0 mm/hr 0.00 in0.0 mm
03:40 PM 72.9°F22.7°C 57.7°F14.3°C 59% 8.1 mph SE13.0 kmh SE 15.0 mph24.1 kmh 29.91 in1012.9 mb 0.00 in0.0 mm 0.00 in/hr0.0 mm/hr 0.00 in0.0 mm
03:50 PM 70.8°F21.6°C 57.1°F13.9°C 62% 3.5 mph S5.6 kmh S 13.8 mph22.2 kmh 29.91 in1012.9 mb 0.00 in0.0 mm 0.00 in/hr0.0 mm/hr 0.00 in0.0 mm
04:00 PM 70.3°F21.3°C 57.5°F14.2°C 64% 4.6 mph S7.4 kmh S 12.7 mph20.4 kmh 29.91 in1012.9 mb 0.00 in0.0 mm 0.00 in/hr0.0 mm/hr 0.00 in0.0 mm
04:10 PM 70.6°F21.4°C 58.7°F14.8°C 66% Calm Calm -- 29.92 in1013.2 mb 0.00 in0.0 mm 0.00 in/hr0.0 mm/hr 0.00 in0.0 mm
04:20 PM 69.7°F20.9°C 58.3°F14.6°C 67% 3.5 mph S5.6 kmh S 5.8 mph9.3 kmh 29.92 in1013.2 mb 0.00 in0.0 mm 0.00 in/hr0.0 mm/hr 0.00 in0.0 mm
04:30 PM 69.8°F21.0°C 57.9°F14.4°C 66% 5.8 mph SSE9.3 kmh SSE 9.2 mph14.8 kmh 29.92 in1013.2 mb 0.00 in0.0 mm 0.00 in/hr0.0 mm/hr 0.00 in0.0 mm
04:40 PM 69.5°F20.8°C 57.6°F14.2°C 66% 3.5 mph S5.6 kmh S 5.8 mph9.3 kmh 29.92 in1013.2 mb 0.00 in0.0 mm 0.00 in/hr0.0 mm/hr 0.00 in0.0 mm
04:50 PM 69.4°F20.8°C 56.7°F13.7°C 64% 3.5 mph SSW5.6 kmh SSW 8.1 mph13.0 kmh 29.93 in1013.5 mb 0.00 in0.0 mm 0.00 in/hr0.0 mm/hr 0.00 in0.0 mm
05:00 PM 68.8°F20.4°C 57.4°F14.1°C 67% Calm Calm -- 29.93 in1013.5 mb 0.00 in0.0 mm 0.00 in/hr0.0 mm/hr 0.00 in0.0 mm
05:10 PM 67.5°F19.7°C 57.3°F14.1°C 70% Calm Calm 6.9 mph11.1 kmh 29.93 in1013.5 mb 0.00 in0.0 mm 0.00 in/hr0.0 mm/hr 0.00 in0.0 mm
05:20 PM 67.1°F19.5°C 57.7°F14.3°C 72% Calm Calm -- 29.94 in1013.9 mb 0.00 in0.0 mm 0.00 in/hr0.0 mm/hr 0.00 in0.0 mm
05:30 PM 66.9°F19.4°C 58.0°F14.4°C 73% Calm Calm -- 29.94 in1013.9 mb 0.00 in0.0 mm 0.00 in/hr0.0 mm/hr 0.00 in0.0 mm
05:40 PM 66.3°F19.1°C 58.1°F14.5°C 75% Calm Calm -- 29.94 in1013.9 mb 0.00 in0.0 mm 0.00 in/hr0.0 mm/hr 0.00 in0.0 mm
05:50 PM 65.4°F18.6°C 57.7°F14.3°C 76% Calm Calm -- 29.95 in1014.2 mb 0.00 in0.0 mm 0.00 in/hr0.0 mm/hr 0.00 in0.0 mm
06:00 PM 64.8°F18.2°C 57.4°F14.1°C 77% Calm Calm -- 29.95 in1014.2 mb 0.00 in0.0 mm 0.00 in/hr0.0 mm/hr 0.00 in0.0 mm
06:10 PM 64.2°F17.9°C 57.2°F14.0°C 78% Calm Calm -- 29.95 in1014.2 mb 0.00 in0.0 mm 0.00 in/hr0.0 mm/hr 0.00 in0.0 mm
06:20 PM 64.8°F18.2°C 57.4°F14.1°C 77% Calm Calm -- 29.95 in1014.2 mb 0.00 in0.0 mm 0.00 in/hr0.0 mm/hr 0.00 in0.0 mm
06:30 PM 65.1°F18.4°C 57.0°F13.9°C 75% 3.5 mph S5.6 kmh S 8.1 mph13.0 kmh 29.95 in1014.2 mb 0.00 in0.0 mm 0.00 in/hr0.0 mm/hr 0.00 in0.0 mm
06:40 PM 64.7°F18.2°C 56.2°F13.4°C 74% 3.5 mph S5.6 kmh S 5.8 mph9.3 kmh 29.95 in1014.2 mb 0.00 in0.0 mm 0.00 in/hr0.0 mm/hr 0.00 in0.0 mm
06:50 PM 64.3°F17.9°C 55.9°F13.3°C 74% Calm Calm -- 29.95 in1014.2 mb 0.00 in0.0 mm 0.00 in/hr0.0 mm/hr 0.00 in0.0 mm
07:00 PM 63.9°F17.7°C 55.8°F13.2°C 75% 4.6 mph S7.4 kmh S 11.5 mph18.5 kmh 29.95 in1014.2 mb 0.00 in0.0 mm 0.00 in/hr0.0 mm/hr 0.00 in0.0 mm
07:10 PM 63.4°F17.4°C 55.4°F13.0°C 75% Calm Calm -- 29.96 in1014.6 mb 0.00 in0.0 mm 0.00 in/hr0.0 mm/hr 0.00 in0.0 mm
07:20 PM 63.1°F17.3°C 55.4°F13.0°C 76% Calm Calm -- 29.96 in1014.6 mb 0.00 in0.0 mm 0.00 in/hr0.0 mm/hr 0.00 in0.0 mm
07:30 PM 62.9°F17.2°C 55.2°F12.9°C 76% Calm Calm -- 29.97 in1014.9 mb 0.00 in0.0 mm 0.00 in/hr0.0 mm/hr 0.00 in0.0 mm
07:40 PM 62.8°F17.1°C 55.2°F12.9°C 76% Calm Calm -- 29.97 in1014.9 mb 0.00 in0.0 mm 0.00 in/hr0.0 mm/hr 0.00 in0.0 mm
07:50 PM 62.7°F17.1°C 55.0°F12.8°C 76% Calm Calm -- 29.97 in1014.9 mb 0.00 in0.0 mm 0.00 in/hr0.0 mm/hr 0.00 in0.0 mm
08:00 PM 62.6°F17.0°C 54.9°F12.7°C 76% 3.5 mph SSW5.6 kmh SSW 5.8 mph9.3 kmh 29.97 in1014.9 mb 0.00 in0.0 mm 0.00 in/hr0.0 mm/hr 0.00 in0.0 mm
08:10 PM 62.5°F16.9°C 55.2°F12.9°C 77% Calm Calm -- 29.98 in1015.2 mb 0.00 in0.0 mm 0.00 in/hr0.0 mm/hr 0.00 in0.0 mm
08:20 PM 62.5°F16.9°C 55.2°F12.9°C 77% 4.6 mph SSW7.4 kmh SSW 8.1 mph13.0 kmh 29.98 in1015.2 mb 0.00 in0.0 mm 0.00 in/hr0.0 mm/hr 0.00 in0.0 mm
08:30 PM 62.5°F16.9°C 55.2°F12.9°C 77% 1.2 mph SSW1.9 kmh SSW 6.9 mph11.1 kmh 29.98 in1015.2 mb 0.00 in0.0 mm 0.00 in/hr0.0 mm/hr 0.00 in0.0 mm
08:40 PM 62.4°F16.9°C 55.1°F12.8°C 77% 2.3 mph SSW3.7 kmh SSW 2.3 mph3.7 kmh 29.98 in1015.2 mb 0.00 in0.0 mm 0.00 in/hr0.0 mm/hr 0.00 in0.0 mm
08:50 PM 62.2°F16.8°C 55.3°F12.9°C 78% Calm Calm 3.5 mph5.6 kmh 29.98 in1015.2 mb 0.00 in0.0 mm 0.00 in/hr0.0 mm/hr 0.00 in0.0 mm
09:00 PM 62.0°F16.7°C 55.1°F12.8°C 78% Calm Calm -- 29.98 in1015.2 mb 0.00 in0.0 mm 0.00 in/hr0.0 mm/hr 0.00 in0.0 mm
09:10 PM 61.7°F16.5°C 54.8°F12.7°C 78% 2.3 mph SSW3.7 kmh SSW 1.2 mph1.9 kmh 29.98 in1015.2 mb 0.00 in0.0 mm 0.00 in/hr0.0 mm/hr 0.00 in0.0 mm
09:20 PM 61.5°F16.4°C 54.6°F12.6°C 78% Calm Calm -- 29.98 in1015.2 mb 0.00 in0.0 mm 0.00 in/hr0.0 mm/hr 0.00 in0.0 mm
09:30 PM 61.2°F16.2°C 54.3°F12.4°C 78% Calm Calm -- 29.98 in1015.2 mb 0.00 in0.0 mm 0.00 in/hr0.0 mm/hr 0.00 in0.0 mm
09:40 PM 61.0°F16.1°C 54.1°F12.3°C 78% Calm Calm -- 29.98 in1015.2 mb 0.00 in0.0 mm 0.00 in/hr0.0 mm/hr 0.00 in0.0 mm
09:50 PM 60.8°F16.0°C 53.9°F12.2°C 78% Calm Calm -- 29.98 in1015.2 mb 0.00 in0.0 mm 0.00 in/hr0.0 mm/hr 0.00 in0.0 mm
10:00 PM 60.5°F15.8°C 53.6°F12.0°C 78% Calm Calm 3.5 mph5.6 kmh 29.98 in1015.2 mb 0.00 in0.0 mm 0.00 in/hr0.0 mm/hr 0.00 in0.0 mm
10:10 PM 60.3°F15.7°C 53.4°F11.9°C 78% Calm Calm -- 29.98 in1015.2 mb 0.00 in0.0 mm 0.00 in/hr0.0 mm/hr 0.00 in0.0 mm
10:20 PM 60.0°F15.6°C 53.1°F11.7°C 78% 1.2 mph SSW1.9 kmh SSW 5.8 mph9.3 kmh 29.97 in1014.9 mb 0.00 in0.0 mm 0.00 in/hr0.0 mm/hr 0.00 in0.0 mm
10:30 PM 59.7°F15.4°C 52.9°F11.6°C 78% Calm Calm 3.5 mph5.6 kmh 29.97 in1014.9 mb 0.00 in0.0 mm 0.00 in/hr0.0 mm/hr 0.00 in0.0 mm
10:40 PM 59.5°F15.3°C 52.6°F11.4°C 78% Calm Calm -- 29.97 in1014.9 mb 0.00 in0.0 mm 0.00 in/hr0.0 mm/hr 0.00 in0.0 mm
10:50 PM 59.3°F15.2°C 52.4°F11.3°C 78% Calm Calm -- 29.97 in1014.9 mb 0.00 in0.0 mm 0.00 in/hr0.0 mm/hr 0.00 in0.0 mm
11:00 PM 59.2°F15.1°C 52.3°F11.3°C 78% Calm Calm -- 29.97 in1014.9 mb 0.00 in0.0 mm 0.00 in/hr0.0 mm/hr 0.00 in0.0 mm
11:10 PM 59.1°F15.1°C 52.2°F11.2°C 78% Calm Calm -- 29.97 in1014.9 mb 0.00 in0.0 mm 0.00 in/hr0.0 mm/hr 0.00 in0.0 mm
11:20 PM 59.0°F15.0°C 52.1°F11.2°C 78% Calm Calm -- 29.97 in1014.9 mb 0.00 in0.0 mm 0.00 in/hr0.0 mm/hr 0.00 in0.0 mm
11:30 PM 59.0°F15.0°C 52.1°F11.2°C 78% 1.2 mph SW1.9 kmh SW 6.9 mph11.1 kmh 29.97 in1014.9 mb 0.00 in0.0 mm 0.00 in/hr0.0 mm/hr 0.00 in0.0 mm
11:40 PM 58.9°F14.9°C 52.1°F11.2°C 78% 3.5 mph SW5.6 kmh SW 4.6 mph7.4 kmh 29.97 in1014.9 mb 0.00 in0.0 mm 0.00 in/hr0.0 mm/hr 0.00 in0.0 mm
11:50 PM 59.0°F15.0°C 52.1°F11.2°C 78% 1.2 mph SW1.9 kmh SW 4.6 mph7.4 kmh 29.97 in1014.9 mb 0.00 in0.0 mm 0.00 in/hr0.0 mm/hr 0.00 in0.0 mm